KEKS

Ennis - Big Sky Airport

Ennis, Montana, USA
KEKS 161727Z 1618/1718 18008G15KT P6SM -SHRA VCTS BKN090CB FM162100 VRB05KT P6SM VCTS SCT070CB TEMPO 1621/1701 VRB15G30KT -SHRA OVC070 FM170300 VRB04KT P6SM SCT080 BKN100 PROB30 1703/1709 -TSRA BKN080CB
Issued Valid From Valid To
Jul-16 @ 17:27 UTC
(3 hours ago)
Jul-16 @ 18:00 UTC
(2 hours ago)
Jul-17 @ 18:00 UTC
(in 22 hours)
Jul-16 @ 18:00 to Jul-16 @ 21:00
KEKS 161727Z 1618/1718 18008G15KT P6SM -SHRA VCTS BKN090CB
Wind Visibility Clouds Conditions
180° at 8 knots
 Gusting to 15 knots
Greater than 6 miles
  • Broken at 9,000' AGL
  • Light Rain
  • Area Thunderstorm
Temporary Jul-16 @ 21:00 to Jul-17 @ 01:00
TEMPO 1621/1701 VRB15G30KT -SHRA OVC070
Wind Clouds Conditions
Variable at 15 knots
 Gusting to 30 knots
  • Overcast at 7,000' AGL
  • Light Rain
From Jul-16 @ 21:00 to Jul-17 @ 03:00
FM162100 VRB05KT P6SM VCTS SCT070CB
Wind Visibility Clouds Conditions
Variable at 5 knots Greater than 6 miles
  • Scattered at 7,000' AGL
  • Area Thunderstorm
Probable  (Probability 30%) Jul-17 @ 03:00 to Jul-17 @ 09:00
PROB30 1703/1709 -TSRA BKN080CB
Clouds Conditions
  • Broken at 8,000' AGL
  • Light Thunderstorm
  • Light Rain
From Jul-17 @ 03:00 to Jul-17 @ 18:00
FM170300 VRB04KT P6SM SCT080 BKN100
Wind Visibility Clouds
Variable at 4 knots Greater than 6 miles
  • Scattered at 8,000' AGL
  • Broken at 10,000' AGL
KEKS 161727Z 1618/1718 18008G15KT P6SM -SHRA VCTS BKN090CB FM162100 VRB05KT P6SM VCTS SCT070CB TEMPO 1621/1701 VRB15G30KT -SHRA OVC070 FM170300 VRB04KT P6SM SCT080 BKN100 PROB30 1703/1709 -TSRA BKN080CB
Issued Jul-16 @ 17:27 UTC
(3 hours ago)
Valid From Jul-16 @ 18:00 UTC
(2 hours ago)
Valid To Jul-17 @ 18:00 UTC
(in 22 hours)
Jul-16 @ 18:00 - Jul-16 @ 21:00
Wind Visibility
180° at 8 knots
 Gusting to 15 knots
Greater than 6 miles
Clouds
  • Broken at 9,000' AGL
Conditions
  • Light Rain
  • Area Thunderstorm
Temporary Jul-16 @ 21:00 - Jul-17 @ 01:00
Wind
Variable at 15 knots
 Gusting to 30 knots
Clouds
  • Overcast at 7,000' AGL
Conditions
  • Light Rain
From Jul-16 @ 21:00 - Jul-17 @ 03:00
Wind Visibility
Variable at 5 knots Greater than 6 miles
Clouds
  • Scattered at 7,000' AGL
Conditions
  • Area Thunderstorm
Probability 30% Probable Jul-17 @ 03:00 - Jul-17 @ 09:00
Clouds
  • Broken at 8,000' AGL
Conditions
  • Light Thunderstorm
  • Light Rain
From Jul-17 @ 03:00 - Jul-17 @ 18:00
Wind Visibility
Variable at 4 knots Greater than 6 miles
Clouds
  • Scattered at 8,000' AGL
  • Broken at 10,000' AGL